Time;durP1;ratioP1;P1;durP2;ratioP2;P2;SDS_P1;SDS_P2;PMS_P1;PMS_P2;Temp;Humidity;BMP_temperature;BMP_pressure;BME280_temperature;BME280_humidity;BME280_pressure;Samples;Min_cycle;Max_cycle;Signal;HPM_P1;HPM_P2
2021/06/18 00:00:19;;;;;;;5.55;0.90;;;;;;;13.73;56.06;101399.41;4907225;29;20079;-39
2021/06/18 00:02:48;;;;;;;7.18;2.70;;;;;;;13.69;55.75;101401.25;4917728;29;20056;-39
2021/06/18 00:05:15;;;;;;;2.10;0.70;;;;;;;13.70;56.00;101400.09;4915428;29;20056;-39
2021/06/18 00:07:44;;;;;;;2.33;0.70;;;;;;;13.66;56.10;101409.50;4915081;29;20087;-38
2021/06/18 00:10:13;;;;;;;3.40;0.80;;;;;;;13.61;56.24;101402.19;4914586;29;20056;-39
2021/06/18 00:12:41;;;;;;;4.55;0.93;;;;;;;13.59;56.21;101404.50;4902838;29;20044;-39
2021/06/18 00:15:10;;;;;;;2.92;1.48;;;;;;;13.49;56.39;101405.00;4914744;29;20052;-39
2021/06/18 00:17:37;;;;;;;3.65;0.80;;;;;;;13.42;56.67;101405.56;4915246;29;20155;-41
2021/06/18 00:20:06;;;;;;;3.03;0.82;;;;;;;13.33;56.87;101413.22;4915694;29;20130;-39
2021/06/18 00:22:33;;;;;;;5.60;0.80;;;;;;;13.30;57.10;101413.09;4918897;29;20079;-38
2021/06/18 00:25:00;;;;;;;5.18;0.80;;;;;;;13.30;57.28;101419.47;4909957;29;20072;-39
2021/06/18 00:27:27;;;;;;;4.22;0.90;;;;;;;13.28;57.17;101421.81;4913570;29;20438;-39
2021/06/18 00:29:54;;;;;;;5.20;1.00;;;;;;;13.17;57.50;101414.25;4914199;29;20127;-39
2021/06/18 00:32:21;;;;;;;14.20;1.92;;;;;;;13.17;57.50;101420.63;4918202;29;20180;-39
2021/06/18 00:34:48;;;;;;;5.13;1.30;;;;;;;13.18;57.39;101424.22;4927006;29;20134;-38
2021/06/18 00:37:17;;;;;;;5.43;1.02;;;;;;;13.13;57.71;101418.91;4905605;29;20168;-39
2021/06/18 00:39:44;;;;;;;6.45;0.95;;;;;;;13.10;57.72;101425.16;4918047;29;20103;-39
2021/06/18 00:42:11;;;;;;;2.15;0.77;;;;;;;13.06;57.60;101433.31;4914269;29;20064;-39
2021/06/18 00:44:38;;;;;;;2.15;0.77;;;;;;;13.00;57.99;101431.91;4909020;29;20578;-40
2021/06/18 00:47:14;;;;;;;4.13;0.82;;;;;;;12.99;58.54;101421.97;4918805;29;20044;-40
2021/06/18 00:49:42;;;;;;;3.33;0.88;;;;;;;13.01;58.40;101435.50;4918607;29;20533;-40
2021/06/18 00:52:09;;;;;;;2.38;0.90;;;;;;;13.02;58.31;101428.81;4925021;29;20044;-40
2021/06/18 00:54:38;;;;;;;5.35;0.98;;;;;;;13.05;58.13;101430.91;4916766;29;20454;-40
2021/06/18 00:57:05;;;;;;;2.03;1.25;;;;;;;13.08;58.25;101433.81;4917206;29;20135;-40
2021/06/18 00:59:32;;;;;;;6.03;0.90;;;;;;;13.12;58.29;101439.50;4901057;29;20040;-40
2021/06/18 01:01:59;;;;;;;8.05;1.85;;;;;;;13.15;58.20;101436.03;4918478;29;20071;-40
2021/06/18 01:04:29;;;;;;;4.55;1.33;;;;;;;13.16;58.45;101443.19;4928851;29;20056;-40
2021/06/18 01:07:16;;;;;;;5.20;1.10;;;;;;;13.13;58.83;101441.94;4917728;29;20780;-40
2021/06/18 01:10:04;;;;;;;3.20;1.67;;;;;;;13.14;58.80;101442.75;4913716;29;20677;-39
2021/06/18 01:12:38;;;;;;;4.03;0.95;;;;;;;13.08;58.85;101439.38;4918033;29;20083;-40
2021/06/18 01:15:31;;;;;;;7.13;1.75;;;;;;;13.00;58.68;101442.25;4917930;29;20059;-41
2021/06/18 01:18:09;;;;;;;5.03;1.00;;;;;;;12.91;59.59;101438.72;4915875;29;20060;-40
2021/06/18 01:20:51;;;;;;;4.47;0.82;;;;;;;12.78;59.57;101441.50;4917479;29;20505;-39
2021/06/18 01:23:32;;;;;;;2.05;0.77;;;;;;;12.72;59.73;101440.09;4910691;29;20733;-40
2021/06/18 01:26:04;;;;;;;5.55;1.27;;;;;;;12.72;59.44;101436.47;4912027;29;20120;-40
2021/06/18 01:28:54;;;;;;;2.95;0.80;;;;;;;12.67;59.56;101437.53;4911136;29;20131;-40
2021/06/18 01:31:40;;;;;;;4.57;1.20;;;;;;;12.66;60.10;101444.22;4917461;29;20127;-40
2021/06/18 01:34:17;;;;;;;2.10;1.00;;;;;;;12.62;59.70;101448.84;4906375;29;20044;-40
2021/06/18 01:36:48;;;;;;;3.55;1.13;;;;;;;12.64;59.57;101445.72;4917124;29;20048;-40
2021/06/18 01:39:16;;;;;;;3.42;1.17;;;;;;;12.59;59.53;101443.97;4917787;29;20082;-40
2021/06/18 01:41:47;;;;;;;2.35;0.90;;;;;;;12.47;60.02;101454.22;4916721;29;20052;-41
2021/06/18 01:44:15;;;;;;;6.00;1.10;;;;;;;12.41;60.12;101442.50;4919402;29;20087;-40
2021/06/18 01:46:45;;;;;;;5.75;1.30;;;;;;;12.33;60.34;101451.75;4908970;29;20088;-40
2021/06/18 01:49:13;;;;;;;8.07;1.23;;;;;;;12.29;60.51;101445.22;4917757;29;20043;-40
2021/06/18 01:51:42;;;;;;;4.57;1.40;;;;;;;12.26;60.77;101445.91;4917113;29;20087;-40
2021/06/18 01:54:11;;;;;;;22.85;2.75;;;;;;;12.27;60.71;101447.53;4917260;29;20084;-42
2021/06/18 01:56:40;;;;;;;10.60;1.38;;;;;;;12.27;60.61;101447.53;4917225;29;20072;-40
2021/06/18 01:59:08;;;;;;;1.40;0.93;;;;;;;12.25;60.71;101444.28;4920097;29;20048;-40
2021/06/18 02:01:42;;;;;;;5.88;1.40;;;;;;;12.21;61.17;101448.88;4904267;29;20143;-40
2021/06/18 02:04:12;;;;;;;3.97;1.27;;;;;;;12.17;61.15;101447.94;4898112;29;20048;-40
2021/06/18 02:06:41;;;;;;;5.43;1.35;;;;;;;12.13;61.26;101446.97;4903930;29;20115;-39
2021/06/18 02:09:09;;;;;;;4.63;1.27;;;;;;;12.08;61.44;101449.97;4916957;29;20052;-40
2021/06/18 02:11:38;;;;;;;4.53;1.02;;;;;;;12.08;61.44;101445.22;4915332;29;20044;-39
2021/06/18 02:14:09;;;;;;;5.63;1.98;;;;;;;12.03;61.86;101441.84;4916821;29;20047;-39
2021/06/18 02:16:41;;;;;;;7.47;1.97;;;;;;;11.93;61.88;101436.69;4917182;29;20506;-40
2021/06/18 02:19:12;;;;;;;7.05;1.10;;;;;;;11.90;62.00;101442.91;4915942;29;20056;-39
2021/06/18 02:21:40;;;;;;;2.90;0.95;;;;;;;11.87;62.09;101443.59;4916362;29;20036;-40
2021/06/18 02:24:08;;;;;;;3.53;1.10;;;;;;;11.86;61.99;101441.97;4915087;29;20055;-39
2021/06/18 02:26:35;;;;;;;2.75;1.27;;;;;;;11.85;62.13;101445.91;4912944;29;20058;-40
2021/06/18 02:29:05;;;;;;;5.78;1.85;;;;;;;11.83;62.25;101443.47;4916329;29;20076;-39
2021/06/18 02:31:34;;;;;;;6.35;1.10;;;;;;;11.81;62.33;101450.50;4916506;29;20184;-40
2021/06/18 02:34:02;;;;;;;3.47;0.85;;;;;;;11.77;62.43;101455.09;4916973;29;20048;-39
2021/06/18 02:36:29;;;;;;;5.03;1.00;;;;;;;11.71;62.47;101450.88;4916553;29;20048;-40
2021/06/18 02:38:56;;;;;;;9.23;1.48;;;;;;;11.72;62.52;101449.72;4910619;29;20131;-40
2021/06/18 02:41:23;;;;;;;3.78;1.10;;;;;;;11.72;62.49;101445.00;4908221;29;20040;-40
2021/06/18 02:43:50;;;;;;;4.53;1.15;;;;;;;11.65;62.66;101449.44;4915817;29;20135;-39
2021/06/18 02:46:38;;;;;;;4.40;1.20;;;;;;;11.57;63.27;101454.66;4916572;29;20088;-39
2021/06/18 02:49:12;;;;;;;5.30;1.00;;;;;;;11.65;62.81;101443.88;4916458;29;20081;-40
2021/06/18 02:51:44;;;;;;;5.75;2.58;;;;;;;11.67;63.09;101438.81;4915681;29;20100;-40
2021/06/18 02:54:27;;;;;;;6.22;2.10;;;;;;;11.49;63.77;101452.75;4916030;29;20143;-40
2021/06/18 02:57:01;;;;;;;2.83;1.00;;;;;;;11.47;63.30;101457.00;4916291;29;20040;-40
2021/06/18 02:59:36;;;;;;;9.73;3.50;;;;;;;11.45;63.15;101460.13;4916084;29;20406;-39
2021/06/18 03:02:05;;;;;;;4.20;1.30;;;;;;;11.41;63.20;101461.94;4914959;29;20040;-39
2021/06/18 03:04:36;;;;;;;3.00;0.93;;;;;;;11.37;63.28;101462.94;4915645;29;20055;-39
2021/06/18 03:07:12;;;;;;;5.55;1.30;;;;;;;11.33;63.65;101462.78;4918681;29;20087;-39
2021/06/18 03:09:45;;;;;;;3.22;0.85;;;;;;;11.33;63.72;101460.00;4918874;29;20044;-40
2021/06/18 03:12:13;;;;;;;4.90;1.88;;;;;;;11.36;63.25;101461.28;4916602;29;20049;-40
2021/06/18 03:14:44;;;;;;;5.10;1.02;;;;;;;11.33;63.66;101462.78;4898327;29;20095;-39
2021/06/18 03:17:17;;;;;;;3.65;1.20;;;;;;;11.31;63.54;101465.06;4915316;29;20122;-40
2021/06/18 03:19:52;;;;;;;5.90;1.13;;;;;;;11.28;63.81;101465.75;4915720;29;20382;-40
2021/06/18 03:22:22;;;;;;;4.75;1.60;;;;;;;11.24;63.78;101470.34;4915668;29;20052;-40
2021/06/18 03:24:51;;;;;;;3.28;1.15;;;;;;;11.19;64.07;101466.94;4922778;29;20151;-39
2021/06/18 03:27:22;;;;;;;9.45;2.35;;;;;;;11.15;63.98;101461.22;4915259;29;20043;-39
2021/06/18 03:29:51;;;;;;;6.00;1.38;;;;;;;11.15;64.01;101463.19;4901258;29;20079;-39
2021/06/18 03:32:20;;;;;;;3.63;1.17;;;;;;;11.12;64.09;101470.19;4909248;29;20059;-40
2021/06/18 03:34:48;;;;;;;2.78;1.02;;;;;;;11.15;64.15;101482.56;4921402;29;20387;-39
2021/06/18 03:37:17;;;;;;;3.42;1.23;;;;;;;11.17;63.96;101472.00;4915302;29;20072;-40
2021/06/18 03:39:45;;;;;;;3.30;1.23;;;;;;;11.16;63.97;101464.81;4915088;29;20056;-40
2021/06/18 03:42:12;;;;;;;4.78;1.88;;;;;;;11.11;64.31;101470.53;4915503;29;20553;-40
2021/06/18 03:44:40;;;;;;;4.65;3.13;;;;;;;11.09;64.32;101472.84;4915151;29;20044;-39
2021/06/18 03:47:08;;;;;;;6.95;1.63;;;;;;;11.09;64.32;101464.53;4915275;29;20043;-40
2021/06/18 03:49:36;;;;;;;6.40;1.40;;;;;;;11.07;64.35;101464.84;4914306;29;20123;-39
2021/06/18 03:52:03;;;;;;;4.57;1.45;;;;;;;11.08;64.41;101483.09;4915339;29;20454;-40
2021/06/18 03:54:32;;;;;;;4.43;2.08;;;;;;;11.05;64.38;101483.75;4913702;29;20051;-40
2021/06/18 03:57:00;;;;;;;4.68;1.27;;;;;;;10.98;64.71;101481.50;4915375;29;20064;-40
2021/06/18 03:59:28;;;;;;;5.10;1.63;;;;;;;10.98;64.73;101484.28;4923394;29;20040;-40
2021/06/18 04:01:57;;;;;;;6.07;1.30;;;;;;;11.01;64.76;101488.34;4904363;29;20090;-39
2021/06/18 04:04:30;;;;;;;5.72;1.58;;;;;;;11.02;64.80;101481.66;4915023;29;20087;-40
2021/06/18 04:07:01;;;;;;;5.45;1.98;;;;;;;11.09;64.68;101483.91;4914410;29;20523;-40
2021/06/18 04:09:29;;;;;;;10.32;1.45;;;;;;;11.08;64.66;101483.09;4926170;29;20383;-40
2021/06/18 04:11:56;;;;;;;7.15;1.58;;;;;;;11.08;64.75;101483.09;4915131;29;20048;-39
2021/06/18 04:14:31;;;;;;;5.93;1.67;;;;;;;11.09;64.78;101484.75;4914825;29;20044;-41
2021/06/18 04:16:58;;;;;;;5.13;1.30;;;;;;;11.11;64.57;101496.31;4917507;29;20502;-39
2021/06/18 04:19:26;;;;;;;11.27;2.00;;;;;;;11.14;64.59;101487.34;4907881;29;20139;-39
2021/06/18 04:21:53;;;;;;;5.75;1.00;;;;;;;11.14;64.72;101484.56;4897700;29;20051;-39
2021/06/18 04:24:20;;;;;;;3.67;1.15;;;;;;;11.19;64.49;101494.66;4915220;29;20142;-40
2021/06/18 04:26:46;;;;;;;6.60;1.80;;;;;;;11.24;64.33;101481.41;4914571;29;20103;-39
2021/06/18 04:29:13;;;;;;;7.32;1.48;;;;;;;11.27;64.29;101482.72;4914538;29;20052;-39
2021/06/18 04:31:40;;;;;;;5.15;1.38;;;;;;;11.28;64.33;101493.47;4914998;29;20131;-39
2021/06/18 04:34:07;;;;;;;6.15;2.33;;;;;;;11.31;64.30;101492.78;4906557;29;20048;-40
2021/06/18 04:36:36;;;;;;;2.85;1.30;;;;;;;11.29;64.32;101500.63;4915046;29;20140;-40
2021/06/18 04:39:05;;;;;;;9.30;1.30;;;;;;;11.24;64.36;101514.69;4915024;29;20406;-40
2021/06/18 04:41:32;;;;;;;7.78;1.45;;;;;;;11.16;64.69;101509.97;4914433;29;20095;-40
2021/06/18 04:43:58;;;;;;;5.68;1.30;;;;;;;11.16;64.62;101507.22;4914561;29;20494;-39
2021/06/18 04:46:25;;;;;;;3.33;1.33;;;;;;;11.24;64.51;101513.88;4914346;29;20052;-39
2021/06/18 04:48:53;;;;;;;6.32;1.58;;;;;;;11.26;64.50;101504.06;4915095;29;20471;-40
2021/06/18 04:51:20;;;;;;;3.47;1.25;;;;;;;11.26;64.48;101495.75;4921413;29;20119;-39
2021/06/18 04:53:47;;;;;;;4.13;1.33;;;;;;;11.27;64.46;101502.94;4913882;29;20449;-40
2021/06/18 04:56:13;;;;;;;5.32;1.58;;;;;;;11.24;64.45;101503.59;4914852;29;20512;-40
2021/06/18 04:58:40;;;;;;;5.50;1.30;;;;;;;11.23;64.41;101512.22;4914662;29;20040;-39
2021/06/18 05:01:07;;;;;;;6.03;1.70;;;;;;;11.18;64.59;101510.44;4914122;29;20067;-40
2021/06/18 05:03:35;;;;;;;6.00;1.83;;;;;;;11.13;64.84;101512.59;4913849;29;20044;-40
2021/06/18 05:06:02;;;;;;;6.10;1.60;;;;;;;11.10;64.75;101502.97;4915511;29;20103;-40
2021/06/18 05:08:29;;;;;;;3.65;1.45;;;;;;;11.12;64.77;101499.91;4917884;29;20044;-39
2021/06/18 05:10:56;;;;;;;8.77;2.60;;;;;;;11.14;64.86;101506.72;4897630;29;20052;-39
2021/06/18 05:13:23;;;;;;;4.20;1.83;;;;;;;11.12;64.88;101508.22;4913899;29;20036;-39
2021/06/18 05:15:51;;;;;;;11.38;1.75;;;;;;;11.11;64.91;101506.56;4917777;29;20040;-40
2021/06/18 05:18:22;;;;;;;6.50;1.60;;;;;;;11.02;64.93;101512.13;4915049;29;20056;-39
2021/06/18 05:20:49;;;;;;;4.43;1.60;;;;;;;11.04;65.04;101518.13;4917354;29;20095;-40
2021/06/18 05:23:16;;;;;;;3.10;1.70;;;;;;;11.02;65.25;101517.66;4918269;29;20135;-40
2021/06/18 05:25:43;;;;;;;5.18;1.52;;;;;;;11.04;65.30;101514.59;4917718;29;20398;-39
2021/06/18 05:28:10;;;;;;;4.53;1.77;;;;;;;11.02;65.49;101529.56;4917443;29;20056;-39
2021/06/18 05:30:37;;;;;;;6.00;1.88;;;;;;;11.11;65.34;101529.56;4917668;29;20402;-39
2021/06/18 05:33:04;;;;;;;5.88;1.63;;;;;;;11.17;65.26;101533.78;4916862;29;20055;-40
2021/06/18 05:35:30;;;;;;;4.55;1.85;;;;;;;11.22;65.37;101518.94;4917517;29;20040;-40
2021/06/18 05:37:57;;;;;;;6.50;2.03;;;;;;;11.30;65.15;101526.41;4917538;29;20048;-39
2021/06/18 05:40:24;;;;;;;6.35;2.17;;;;;;;11.36;65.14;101528.66;4918988;29;20075;-39
2021/06/18 05:42:52;;;;;;;5.20;1.83;;;;;;;11.36;65.33;101522.28;4917213;29;20047;-40
2021/06/18 05:45:19;;;;;;;9.60;2.65;;;;;;;11.38;65.28;101526.38;4916967;29;20502;-39
2021/06/18 05:47:49;;;;;;;6.60;2.70;;;;;;;11.41;65.25;101522.94;4916740;29;20052;-40
2021/06/18 05:50:15;;;;;;;10.00;2.88;;;;;;;11.39;65.34;101516.91;4898035;29;20148;-40
2021/06/18 05:52:43;;;;;;;10.25;2.80;;;;;;;11.40;65.17;101523.28;4912975;29;20406;-39
2021/06/18 05:55:10;;;;;;;5.35;1.77;;;;;;;11.39;65.34;101522.44;4916986;29;20044;-40
2021/06/18 05:57:39;;;;;;;5.40;2.17;;;;;;;11.39;65.42;101522.44;4922312;29;20126;-40
2021/06/18 06:00:06;;;;;;;4.32;2.10;;;;;;;11.44;65.33;101516.72;4917191;29;20086;-40
2021/06/18 06:02:33;;;;;;;9.75;2.55;;;;;;;11.48;65.47;101514.94;4916652;29;20454;-41
2021/06/18 06:05:00;;;;;;;4.53;2.10;;;;;;;11.56;65.17;101508.53;4917254;29;20126;-39
2021/06/18 06:07:27;;;;;;;7.03;2.35;;;;;;;11.60;65.09;101500.34;4916615;29;20050;-40
2021/06/18 06:09:54;;;;;;;6.43;2.45;;;;;;;11.59;65.15;101505.09;4917063;29;20048;-40
2021/06/18 06:12:21;;;;;;;5.68;2.08;;;;;;;11.63;65.16;101499.66;4917083;29;20052;-40
2021/06/18 06:14:49;;;;;;;12.45;2.50;;;;;;;11.66;65.25;101498.19;4921419;29;20434;-40
2021/06/18 06:17:17;;;;;;;3.60;1.50;;;;;;;11.66;65.30;101503.72;4916556;29;20041;-39
2021/06/18 06:19:44;;;;;;;5.88;2.30;;;;;;;11.70;65.28;101507.50;4915325;29;20071;-40
2021/06/18 06:22:11;;;;;;;5.13;1.40;;;;;;;11.72;65.19;101513.53;4916737;29;20490;-40
2021/06/18 06:24:38;;;;;;;10.68;2.08;;;;;;;11.76;65.45;101504.19;4911490;29;20135;-40
2021/06/18 06:27:05;;;;;;;5.75;1.73;;;;;;;11.82;65.15;101504.81;4903714;29;20075;-40
2021/06/18 06:29:32;;;;;;;8.95;1.50;;;;;;;11.87;65.19;101510.19;4916901;29;20481;-40
2021/06/18 06:32:01;;;;;;;3.53;1.48;;;;;;;11.93;65.16;101509.66;4921641;29;20044;-40
2021/06/18 06:34:28;;;;;;;6.22;1.48;;;;;;;11.96;65.16;101502.63;4916418;29;20080;-40
2021/06/18 06:36:56;;;;;;;7.28;2.03;;;;;;;11.97;65.17;101504.22;4923072;29;20139;-40
2021/06/18 06:39:22;;;;;;;7.25;2.30;;;;;;;12.04;65.03;101499.00;4916450;29;20048;-40
2021/06/18 06:41:50;;;;;;;8.95;2.15;;;;;;;12.05;65.11;101500.59;4916169;29;20090;-40
2021/06/18 06:44:16;;;;;;;5.15;2.13;;;;;;;12.10;64.86;101503.16;4915116;29;20132;-40
2021/06/18 06:46:43;;;;;;;7.93;1.65;;;;;;;12.21;64.98;101498.84;4916382;29;20048;-40
2021/06/18 06:49:10;;;;;;;7.90;2.10;;;;;;;12.30;64.81;101505.16;4916466;29;20055;-40
2021/06/18 06:51:37;;;;;;;4.28;1.33;;;;;;;12.39;64.83;101511.44;4916109;29;20075;-40
2021/06/18 06:54:04;;;;;;;2.75;1.35;;;;;;;12.51;64.69;101508.75;4916051;29;20134;-40
2021/06/18 06:56:32;;;;;;;5.55;1.27;;;;;;;12.59;64.38;101493.97;4914823;29;20036;-40
2021/06/18 06:58:59;;;;;;;5.72;1.40;;;;;;;12.63;64.42;101497.69;4915496;29;20048;-39
2021/06/18 07:01:26;;;;;;;7.22;1.63;;;;;;;12.70;64.00;101489.63;4907254;29;20063;-39
2021/06/18 07:03:53;;;;;;;5.03;1.33;;;;;;;12.75;64.51;101506.09;4915659;29;20048;-40
2021/06/18 07:06:20;;;;;;;5.97;1.30;;;;;;;12.86;64.73;101502.88;4916481;29;20122;-40
2021/06/18 07:08:48;;;;;;;2.10;1.17;;;;;;;12.96;64.79;101500.47;4915873;29;20481;-40
2021/06/18 07:11:14;;;;;;;3.08;1.30;;;;;;;13.01;64.78;101489.13;4915368;29;20111;-40
2021/06/18 07:13:41;;;;;;;5.30;1.30;;;;;;;13.11;65.14;101501.81;4915158;29;20090;-40
2021/06/18 07:16:11;;;;;;;6.53;1.27;;;;;;;13.22;65.19;101505.78;4915516;29;20044;-47
2021/06/18 07:18:38;;;;;;;4.38;1.35;;;;;;;13.36;65.56;101495.16;4915664;29;20498;-40
2021/06/18 07:21:05;;;;;;;4.43;1.23;;;;;;;13.48;66.29;101497.94;4895657;29;20486;-38
2021/06/18 07:23:32;;;;;;;5.03;1.73;;;;;;;13.64;66.41;101489.72;4915088;29;20087;-37
2021/06/18 07:25:58;;;;;;;4.32;1.70;;;;;;;13.76;66.16;101496.09;4915777;29;20048;-38
2021/06/18 07:28:26;;;;;;;4.55;1.23;;;;;;;13.90;66.18;101488.19;4915438;29;20127;-38
2021/06/18 07:30:52;;;;;;;4.88;1.00;;;;;;;14.08;66.28;101496.31;4914544;29;20119;-37
2021/06/18 07:33:20;;;;;;;3.60;0.85;;;;;;;14.31;66.38;101497.41;4914248;29;20192;-38
2021/06/18 07:35:47;;;;;;;5.82;1.20;;;;;;;14.58;66.55;101496.66;4915168;29;20032;-38
2021/06/18 07:38:16;;;;;;;7.22;2.05;;;;;;;14.88;66.44;101483.97;4885345;29;20048;-38
2021/06/18 07:40:43;;;;;;;6.35;1.02;;;;;;;15.23;66.06;101496.09;4913554;29;20147;-38
2021/06/18 07:43:10;;;;;;;3.97;0.70;;;;;;;15.64;65.02;101505.16;4915323;29;20131;-38
2021/06/18 07:45:37;;;;;;;4.75;1.25;;;;;;;16.09;63.72;101504.63;4915217;29;20140;-38
2021/06/18 07:48:09;;;;;;;2.88;1.00;;;;;;;16.63;61.88;101499.88;4913913;29;20052;-38
2021/06/18 07:50:38;;;;;;;2.65;0.85;;;;;;;17.11;60.20;101500.41;4911684;29;20048;-38
2021/06/18 07:53:05;;;;;;;2.78;0.70;;;;;;;17.47;57.46;101497.88;4915397;29;20052;-39
2021/06/18 07:55:33;;;;;;;7.68;0.90;;;;;;;18.07;55.28;101500.88;4910893;29;20131;-38
2021/06/18 07:58:01;;;;;;;9.90;1.25;;;;;;;18.53;53.33;101493.94;4914782;29;20048;-38
2021/06/18 08:00:27;;;;;;;4.95;0.80;;;;;;;19.19;51.87;101503.53;4911542;29;20115;-39
2021/06/18 08:02:54;;;;;;;2.38;1.17;;;;;;;19.75;49.87;101500.47;4912712;29;20079;-39
2021/06/18 08:05:22;;;;;;;5.53;0.65;;;;;;;20.24;48.54;101497.22;4915566;29;20386;-38
2021/06/18 08:07:51;;;;;;;2.42;0.80;;;;;;;20.81;47.41;101493.47;4914899;29;20046;-39
2021/06/18 08:10:18;;;;;;;2.17;1.02;;;;;;;21.36;46.62;101496.06;4901326;29;20558;-39
2021/06/18 08:12:47;;;;;;;4.90;0.68;;;;;;;21.68;45.19;101492.03;4915103;29;20044;-39
2021/06/18 08:15:14;;;;;;;4.03;0.75;;;;;;;21.90;44.35;101492.88;4914894;29;20075;-39
2021/06/18 08:17:42;;;;;;;3.25;0.70;;;;;;;22.09;43.87;101483.97;4915147;29;20048;-38
2021/06/18 08:20:11;;;;;;;3.42;0.98;;;;;;;22.35;42.77;101483.50;4914361;29;20481;-38
2021/06/18 08:22:40;;;;;;;3.33;0.88;;;;;;;22.45;41.61;101485.47;4889851;29;20517;-42
2021/06/18 08:25:07;;;;;;;2.03;0.95;;;;;;;22.61;41.40;101492.72;4913391;29;20165;-44
2021/06/18 08:27:34;;;;;;;3.17;1.20;;;;;;;22.76;40.55;101488.63;4907193;29;20052;-39
2021/06/18 08:30:01;;;;;;;8.90;1.52;;;;;;;22.79;40.54;101490.63;4898813;29;20060;-39
2021/06/18 08:32:46;;;;;;;3.45;1.05;;;;;;;22.96;40.26;101489.72;4914466;29;20502;-42
2021/06/18 08:35:14;;;;;;;2.33;0.55;;;;;;;23.07;39.43;101484.00;4914783;29;20048;-41
2021/06/18 08:37:41;;;;;;;3.47;0.70;;;;;;;23.25;39.71;101485.50;4914611;29;20052;-40
2021/06/18 08:40:08;;;;;;;3.88;0.70;;;;;;;23.44;38.97;101484.19;4914850;29;20135;-41
2021/06/18 08:42:36;;;;;;;4.20;0.70;;;;;;;23.69;38.62;101481.19;4917820;29;20036;-40
2021/06/18 08:45:05;;;;;;;3.83;1.08;;;;;;;23.91;37.99;101488.22;4918617;29;20051;-43
2021/06/18 08:47:32;;;;;;;3.22;1.08;;;;;;;23.49;37.67;101492.22;4923406;29;20046;-41
2021/06/18 08:49:58;;;;;;;3.95;0.82;;;;;;;23.14;37.61;101478.34;4913220;29;20052;-41
2021/06/18 08:52:25;;;;;;;3.53;0.80;;;;;;;23.03;37.51;101472.75;4917233;29;20071;-40
2021/06/18 08:54:54;;;;;;;1.88;0.57;;;;;;;23.04;37.51;101471.53;4917214;29;20139;-40
2021/06/18 08:57:22;;;;;;;4.22;0.70;;;;;;;22.99;37.10;101469.94;4918427;29;20063;-40
2021/06/18 08:59:50;;;;;;;3.65;0.88;;;;;;;23.18;37.18;101467.81;4916795;29;20059;-42
2021/06/18 09:02:18;;;;;;;4.13;0.70;;;;;;;23.33;36.97;101472.13;4912337;29;20048;-40
2021/06/18 09:05:08;;;;;;;4.22;0.75;;;;;;;23.44;35.78;101473.69;4918123;29;20069;-43
2021/06/18 09:07:54;;;;;;;3.38;0.60;;;;;;;22.96;35.84;101467.94;4914837;29;20048;-40
2021/06/18 09:10:28;;;;;;;6.20;1.48;;;;;;;22.84;36.63;101470.44;4918500;29;20142;-41
2021/06/18 09:13:06;;;;;;;1.70;0.98;;;;;;;22.61;36.58;101464.47;4917633;29;20072;-40
2021/06/18 09:15:38;;;;;;;3.03;0.70;;;;;;;21.96;36.73;101459.44;4917931;29;20107;-40
2021/06/18 09:18:31;;;;;;;5.20;0.77;;;;;;;22.05;37.25;101446.53;4917850;29;20052;-40
2021/06/18 09:21:01;;;;;;;3.03;0.80;;;;;;;22.64;36.72;101458.03;4919547;29;20059;-40
2021/06/18 09:23:33;;;;;;;1.45;0.60;;;;;;;22.81;35.73;101451.50;4936877;29;20086;-43
2021/06/18 09:26:23;;;;;;;1.25;0.40;;;;;;;22.77;35.04;101450.72;4926123;29;20048;-40
2021/06/18 09:29:05;;;;;;;5.00;0.73;;;;;;;23.02;34.58;101457.81;4917240;29;20059;-40
2021/06/18 09:32:12;;;;;;;5.20;1.48;;;;;;;22.95;35.35;101459.91;4917890;29;20044;-40
2021/06/18 09:35:03;;;;;;;5.50;0.60;;;;;;;22.22;35.49;101442.84;4889046;29;20049;-40
2021/06/18 09:37:53;;;;;;;3.33;0.68;;;;;;;21.95;36.16;101440.91;4900315;29;20056;-41
2021/06/18 09:40:21;;;;;;;3.67;0.93;;;;;;;22.14;36.43;101438.44;4917398;29;20517;-41
2021/06/18 09:42:56;;;;;;;2.42;0.68;;;;;;;22.65;36.39;101439.88;4917439;29;20071;-42
2021/06/18 09:45:43;;;;;;;2.80;0.57;;;;;;;22.90;35.89;101438.53;4912013;29;20448;-41
2021/06/18 09:48:12;;;;;;;6.78;0.73;;;;;;;23.10;35.57;101455.75;4915156;29;20490;-41
2021/06/18 09:50:41;;;;;;;2.13;0.90;;;;;;;22.83;35.60;101441.41;4916924;29;20510;-41
2021/06/18 09:53:12;;;;;;;3.17;0.75;;;;;;;22.54;35.33;101427.81;4916052;29;20084;-41
2021/06/18 09:55:39;;;;;;;5.37;0.83;;;;;;;22.75;35.52;101436.19;4917784;29;20573;-42
2021/06/18 09:58:06;;;;;;;2.80;0.80;;;;;;;22.79;35.31;101437.81;4917111;29;20382;-40
2021/06/18 10:00:33;;;;;;;3.42;0.73;;;;;;;23.20;35.23;101432.28;4912878;29;20080;-41
2021/06/18 10:03:00;;;;;;;2.75;1.17;;;;;;;23.29;35.41;101435.44;4907305;29;20047;-40
2021/06/18 10:05:36;;;;;;;4.60;0.75;;;;;;;22.91;35.37;101425.22;4917087;29;20127;-40
2021/06/18 10:08:03;;;;;;;3.90;1.13;;;;;;;23.20;34.81;101425.81;4917349;29;20055;-41
2021/06/18 10:10:32;;;;;;;4.88;0.70;;;;;;;23.11;35.30;101423.47;4916900;29;20054;-41
2021/06/18 10:13:00;;;;;;;3.88;0.90;;;;;;;22.50;35.42;101424.22;4926529;29;20545;-40
2021/06/18 10:15:29;;;;;;;2.30;0.60;;;;;;;21.85;35.29;101432.03;4927796;29;20075;-40
2021/06/18 10:17:58;;;;;;;4.20;0.80;;;;;;;21.22;36.16;101427.25;4914599;29;20035;-40
2021/06/18 10:20:28;;;;;;;3.45;0.98;;;;;;;21.12;36.81;101422.41;4915841;29;20107;-40
2021/06/18 10:22:57;;;;;;;1.48;0.77;;;;;;;21.06;36.58;101421.19;4916899;29;20080;-40
2021/06/18 10:25:33;;;;;;;4.70;1.02;;;;;;;20.65;36.56;101415.03;4902623;29;20067;-40
2021/06/18 10:28:08;;;;;;;1.70;0.50;;;;;;;20.22;36.66;101415.25;4916502;29;20134;-40
2021/06/18 10:30:50;;;;;;;0.75;0.50;;;;;;;19.68;36.95;101414.13;4921712;29;20569;-40
2021/06/18 10:33:26;;;;;;;3.38;0.70;;;;;;;19.42;37.39;101417.13;4915681;29;20044;-40
2021/06/18 10:36:03;;;;;;;3.22;0.52;;;;;;;19.32;37.75;101413.03;4916757;29;20072;-40
2021/06/18 10:38:32;;;;;;;5.05;0.90;;;;;;;19.31;37.87;101421.81;4915940;29;20092;-41
2021/06/18 10:41:04;;;;;;;2.67;0.60;;;;;;;19.27;38.07;101421.00;4916911;29;20677;-40
2021/06/18 10:44:00;;;;;;;2.22;0.45;;;;;;;19.34;37.85;101415.44;4916460;29;20083;-39
2021/06/18 10:46:32;;;;;;;4.15;0.85;;;;;;;19.35;38.17;101406.59;4902226;29;20068;-40
2021/06/18 10:49:13;;;;;;;3.05;0.80;;;;;;;19.27;38.88;101409.78;4915500;29;20063;-40
2021/06/18 10:51:50;;;;;;;5.53;1.75;;;;;;;19.15;39.09;101401.63;4916125;29;20493;-39
2021/06/18 10:54:28;;;;;;;3.83;1.00;;;;;;;18.93;39.01;101397.03;4912106;29;20454;-40
2021/06/18 10:56:58;;;;;;;2.40;0.93;;;;;;;18.89;39.17;101408.19;4915756;29;20107;-40
2021/06/18 10:59:36;;;;;;;3.75;1.20;;;;;;;18.73;39.53;101400.03;4915568;29;20131;-39
2021/06/18 11:02:26;;;;;;;3.22;1.27;;;;;;;18.47;40.06;101394.53;4911284;29;20156;-39
2021/06/18 11:04:58;;;;;;;2.85;1.20;;;;;;;18.41;40.85;101396.03;4915643;29;20497;-39
2021/06/18 11:07:35;;;;;;;2.38;1.00;;;;;;;18.54;40.35;101400.22;4915817;29;20044;-39
2021/06/18 11:10:02;;;;;;;4.05;1.15;;;;;;;18.87;39.95;101401.38;4915690;29;20139;-39
2021/06/18 11:12:29;;;;;;;3.05;0.88;;;;;;;19.06;39.25;101395.53;4915642;29;20050;-40
2021/06/18 11:14:59;;;;;;;3.28;1.25;;;;;;;19.02;39.78;101389.06;4915625;29;20054;-40
2021/06/18 11:18:15;;;;;;;6.32;1.83;;;;;;;18.96;39.83;101390.63;4914555;29;20063;-39
2021/06/18 11:20:41;;;;;;;7.22;1.20;;;;;;;18.96;40.08;101396.22;4906281;29;20548;-39
2021/06/18 11:23:14;;;;;;;8.10;2.50;;;;;;;18.96;40.18;101382.19;4919440;29;20044;-40
2021/06/18 11:25:41;;;;;;;4.85;1.52;;;;;;;19.09;40.15;101381.53;4915965;29;20083;-39
2021/06/18 11:28:24;;;;;;;5.90;2.05;;;;;;;19.19;40.35;101383.63;4915749;29;20044;-40
2021/06/18 11:31:13;;;;;;;3.88;1.20;;;;;;;19.37;40.52;101380.97;4914775;29;20134;-40
2021/06/18 11:33:40;;;;;;;2.70;1.50;;;;;;;19.44;40.20;101386.66;4928061;29;20482;-40
2021/06/18 11:36:31;;;;;;;2.72;1.15;;;;;;;19.34;40.23;101373.31;4915461;29;20179;-40
2021/06/18 11:39:10;;;;;;;4.40;1.75;;;;;;;19.12;40.49;101374.31;4914969;29;20470;-40